createdAt,value
2022-12-18T00:00:28.635Z,1.50
2022-12-18T00:06:21.022Z,1.49
2022-12-18T00:18:02.538Z,1.59
2022-12-18T00:23:50.345Z,1.46
2022-12-18T00:29:36.895Z,1.32
2022-12-18T00:35:26.633Z,1.23
2022-12-18T00:41:35.212Z,1.30
2022-12-18T00:47:22.009Z,1.10
2022-12-18T00:53:11.583Z,1.02
2022-12-18T00:58:58.329Z,0.87
2022-12-18T01:04:45.287Z,0.75
2022-12-18T01:10:32.027Z,0.81
2022-12-18T01:16:18.860Z,0.81
2022-12-18T01:22:05.492Z,0.76
2022-12-18T01:27:52.554Z,1.10
2022-12-18T01:33:39.545Z,0.98
2022-12-18T01:39:26.782Z,1.05
2022-12-18T01:45:13.581Z,1.22
2022-12-18T01:51:02.471Z,1.26
2022-12-18T01:56:49.278Z,1.23
2022-12-18T02:02:36.497Z,1.23
2022-12-18T02:08:32.394Z,1.30
2022-12-18T02:15:01.114Z,1.18
2022-12-18T02:20:57.605Z,1.14
2022-12-18T02:26:58.116Z,1.24
2022-12-18T02:32:52.861Z,1.37
2022-12-18T02:38:40.531Z,1.24
2022-12-18T02:44:32.401Z,1.45
2022-12-18T02:50:42.885Z,1.41
2022-12-18T02:56:36.332Z,1.40
2022-12-18T03:02:24.988Z,1.48
2022-12-18T03:08:18.424Z,1.59
2022-12-18T03:14:08.617Z,1.57
2022-12-18T03:19:59.318Z,1.57
2022-12-18T03:25:48.248Z,1.50
2022-12-18T03:31:38.004Z,1.48
2022-12-18T03:37:24.808Z,1.30
2022-12-18T03:43:28.722Z,1.23
2022-12-18T03:49:24.411Z,1.12
2022-12-18T03:55:13.373Z,1.08
2022-12-18T04:01:04.812Z,1.14
2022-12-18T04:06:56.146Z,1.17
2022-12-18T04:12:44.668Z,1.25
2022-12-18T04:18:33.096Z,1.31
2022-12-18T04:24:21.433Z,1.39
2022-12-18T04:30:22.556Z,1.48
2022-12-18T04:36:09.599Z,1.59
2022-12-18T04:41:56.351Z,1.62
2022-12-18T04:47:46.330Z,1.53
2022-12-18T04:53:33.429Z,1.51
2022-12-18T04:59:20.136Z,1.31
2022-12-18T05:05:07.542Z,1.31
2022-12-18T05:11:03.391Z,1.48
2022-12-18T05:16:50.021Z,1.50
2022-12-18T05:22:36.681Z,1.85
2022-12-18T05:28:24.472Z,1.97
2022-12-18T05:34:11.153Z,2.09
2022-12-18T05:39:58.121Z,2.00
2022-12-18T05:45:44.982Z,1.92
2022-12-18T05:51:32.516Z,1.86
2022-12-18T05:57:19.285Z,1.99
2022-12-18T06:03:06.095Z,2.07
2022-12-18T06:08:53.107Z,2.16
2022-12-18T06:14:40.054Z,2.23
2022-12-18T06:20:33.104Z,2.15
2022-12-18T06:26:26.149Z,2.43
2022-12-18T06:32:14.601Z,2.29
2022-12-18T06:38:03.339Z,2.25
2022-12-18T06:43:49.927Z,2.24
2022-12-18T06:49:36.624Z,2.22
2022-12-18T06:55:23.328Z,2.16
2022-12-18T07:01:12.294Z,2.22
2022-12-18T07:06:58.893Z,2.30
2022-12-18T07:12:45.533Z,2.31
2022-12-18T07:18:32.332Z,2.27
2022-12-18T07:24:19.045Z,2.24
2022-12-18T07:30:06.364Z,2.27
2022-12-18T07:35:53.052Z,2.28
2022-12-18T07:41:46.688Z,2.25
2022-12-18T07:47:37.229Z,2.28
2022-12-18T07:53:23.816Z,2.28
2022-12-18T07:59:10.460Z,2.30
2022-12-18T08:04:57.153Z,2.18
2022-12-18T08:10:43.807Z,2.26
2022-12-18T08:16:31.307Z,2.36
2022-12-18T08:22:18.075Z,2.39
2022-12-18T08:28:05.108Z,2.63
2022-12-18T08:33:53.289Z,2.77
2022-12-18T08:39:40.658Z,2.88
2022-12-18T08:45:27.504Z,2.72
2022-12-18T08:51:16.958Z,2.83
2022-12-18T08:57:03.692Z,2.69
2022-12-18T09:02:51.808Z,2.65
2022-12-18T09:08:38.917Z,2.86
2022-12-18T09:14:26.132Z,2.83
2022-12-18T09:20:12.830Z,2.77
2022-12-18T09:26:00.969Z,2.99
2022-12-18T09:31:48.878Z,2.87
2022-12-18T09:37:35.811Z,2.91
2022-12-18T09:43:38.479Z,3.17
2022-12-18T09:49:29.333Z,3.39
2022-12-18T09:55:36.916Z,2.97
2022-12-18T10:01:26.351Z,3.25
2022-12-18T10:07:22.184Z,3.36
2022-12-18T10:13:14.123Z,3.47
2022-12-18T10:19:25.133Z,3.63
2022-12-18T10:25:20.983Z,3.59
2022-12-18T10:31:18.510Z,3.53
2022-12-18T10:37:13.904Z,3.77
2022-12-18T10:43:13.821Z,3.82
2022-12-18T10:49:00.748Z,3.77
2022-12-18T10:54:59.158Z,3.39
2022-12-18T11:00:46.305Z,3.33
2022-12-18T11:06:37.828Z,3.40
2022-12-18T11:12:25.072Z,3.65
2022-12-18T11:18:33.871Z,3.68
2022-12-18T11:24:41.531Z,3.58
2022-12-18T11:30:38.893Z,3.57
2022-12-18T11:36:29.531Z,3.60
2022-12-18T11:42:33.759Z,3.61
2022-12-18T11:48:26.760Z,3.70
2022-12-18T11:54:15.221Z,3.65
2022-12-18T12:00:10.754Z,3.68
2022-12-18T12:06:19.246Z,3.68
2022-12-18T12:12:27.237Z,3.70
2022-12-18T12:18:53.807Z,3.54
2022-12-18T12:25:22.318Z,3.46
2022-12-18T12:31:27.825Z,3.44
2022-12-18T12:37:33.001Z,3.43
2022-12-18T12:43:28.503Z,3.41
2022-12-18T12:49:25.983Z,3.34
2022-12-18T12:55:22.846Z,3.49
2022-12-18T13:01:23.294Z,3.57
2022-12-18T13:07:28.842Z,3.60
2022-12-18T13:13:23.525Z,3.65
2022-12-18T13:19:26.360Z,3.63
2022-12-18T13:25:35.077Z,3.58
2022-12-18T13:31:40.758Z,3.55
2022-12-18T13:37:42.051Z,3.57
2022-12-18T13:43:45.413Z,3.50
2022-12-18T13:49:40.862Z,3.60
2022-12-18T13:55:27.755Z,3.53
2022-12-18T14:01:24.654Z,3.58
2022-12-18T14:07:42.640Z,3.58
2022-12-18T14:13:41.294Z,3.56
2022-12-18T14:19:28.434Z,3.65
2022-12-18T14:25:19.730Z,3.78
2022-12-18T14:31:19.260Z,3.84
2022-12-18T14:37:07.914Z,3.90
2022-12-18T14:42:54.602Z,3.87
2022-12-18T14:48:43.619Z,3.95
2022-12-18T14:54:31.281Z,4.05
2022-12-18T15:00:25.415Z,4.20
2022-12-18T15:06:38.450Z,4.17
2022-12-18T15:12:43.559Z,4.28
2022-12-18T15:18:43.269Z,4.40
2022-12-18T15:24:34.071Z,4.48
2022-12-18T15:30:25.177Z,4.65
2022-12-18T15:36:15.178Z,4.68
2022-12-18T15:42:22.337Z,4.75
2022-12-18T15:48:24.584Z,4.89
2022-12-18T15:54:14.438Z,4.93
2022-12-18T16:00:02.484Z,5.09
2022-12-18T16:05:51.824Z,5.19
2022-12-18T16:11:44.432Z,5.29
2022-12-18T16:17:31.763Z,5.50
2022-12-18T16:23:18.571Z,5.69
2022-12-18T16:29:05.208Z,5.74
2022-12-18T16:34:53.420Z,5.87
2022-12-18T16:41:00.361Z,6.02
2022-12-18T16:46:52.544Z,6.13
2022-12-18T16:52:41.506Z,6.26
2022-12-18T16:58:32.734Z,6.24
2022-12-18T17:04:25.628Z,6.36
2022-12-18T17:10:18.086Z,6.31
2022-12-18T17:16:08.429Z,6.39
2022-12-18T17:21:56.770Z,6.44
2022-12-18T17:27:44.706Z,6.40
2022-12-18T17:33:31.879Z,6.47
2022-12-18T17:39:24.199Z,6.56
2022-12-18T17:45:16.900Z,6.63
2022-12-18T17:51:06.797Z,6.71
2022-12-18T17:56:54.397Z,6.75
2022-12-18T18:02:50.651Z,6.85
2022-12-18T18:08:39.105Z,6.81
2022-12-18T18:14:28.733Z,6.89
2022-12-18T18:20:22.283Z,6.92
2022-12-18T18:26:10.933Z,6.99
2022-12-18T18:31:58.329Z,7.01
2022-12-18T18:37:49.303Z,7.04
2022-12-18T18:43:38.241Z,7.06
2022-12-18T18:49:27.414Z,7.10
2022-12-18T18:55:25.377Z,7.20
2022-12-18T19:01:22.226Z,7.24
2022-12-18T19:07:10.248Z,7.27
2022-12-18T19:13:17.260Z,7.28
2022-12-18T19:19:04.676Z,7.27
2022-12-18T19:24:51.464Z,7.41
2022-12-18T19:30:39.906Z,7.48
2022-12-18T19:36:31.884Z,7.60
2022-12-18T19:42:25.552Z,7.69
2022-12-18T19:48:18.491Z,7.70
2022-12-18T19:54:05.616Z,7.82
2022-12-18T19:59:52.403Z,7.93
2022-12-18T20:05:39.073Z,8.02
2022-12-18T20:11:26.216Z,7.94
2022-12-18T20:17:15.524Z,8.11
2022-12-18T20:23:04.045Z,8.20
2022-12-18T20:28:51.049Z,8.30
2022-12-18T20:34:38.919Z,8.40
2022-12-18T20:40:26.768Z,8.52
2022-12-18T20:46:16.871Z,8.66
2022-12-18T20:52:04.069Z,8.79
2022-12-18T20:57:52.862Z,8.78
2022-12-18T21:03:42.336Z,8.89
2022-12-18T21:09:37.768Z,8.91
2022-12-18T21:15:29.130Z,9.05
2022-12-18T21:21:15.832Z,9.05
2022-12-18T21:27:03.460Z,9.10
2022-12-18T21:32:51.889Z,9.18
2022-12-18T21:38:40.460Z,9.29
2022-12-18T21:44:27.908Z,9.31
2022-12-18T21:50:14.454Z,9.42
2022-12-18T21:56:01.671Z,9.43
2022-12-18T22:01:49.795Z,9.54
2022-12-18T22:07:37.539Z,9.54
2022-12-18T22:13:24.600Z,9.61
2022-12-18T22:19:13.216Z,9.69
2022-12-18T22:25:04.504Z,9.78
2022-12-18T22:30:59.104Z,9.77
2022-12-18T22:36:49.048Z,9.84
2022-12-18T22:42:36.249Z,9.93
2022-12-18T22:48:22.999Z,10.02
2022-12-18T22:54:14.839Z,10.09
2022-12-18T23:00:04.885Z,10.18
2022-12-18T23:05:51.918Z,10.27
2022-12-18T23:11:40.464Z,10.36
2022-12-18T23:17:27.373Z,10.37
2022-12-18T23:23:16.409Z,10.52
2022-12-18T23:29:03.929Z,10.60
2022-12-18T23:34:50.869Z,10.73
2022-12-18T23:40:39.321Z,10.78
2022-12-18T23:46:32.487Z,10.76
2022-12-18T23:52:24.656Z,10.84
2022-12-18T23:58:19.940Z,10.97
